Time;durP1;ratioP1;P1;durP2;ratioP2;P2;SDS_P1;SDS_P2;PMS_P1;PMS_P2;Temp;Humidity;BMP_temperature;BMP_pressure;BME280_temperature;BME280_humidity;BME280_pressure;Samples;Min_cycle;Max_cycle;Signal;HPM_P1;HPM_P2
2022/12/18 00:02:52;;;;;;;;;;;;;;;19.36;56.32;102545.79;2338116;75;51551;-73
2022/12/18 00:05:54;;;;;;;;;;;;;;;19.28;56.44;102553.70;2308315;76;50330;-76
2022/12/18 00:08:55;;;;;;;;;;;;;;;19.24;56.64;102549.63;2309474;76;49554;-72
2022/12/18 00:11:57;;;;;;;;;;;;;;;19.22;56.81;102560.99;2326681;76;51426;-72
2022/12/18 00:14:59;;;;;;;;;;;;;;;19.21;56.88;102561.97;2326806;76;50265;-73
2022/12/18 00:18:00;;;;;;;;;;;;;;;19.21;56.74;102565.98;2294993;76;50261;-73
2022/12/18 00:21:03;;;;;;;;;;;;;;;19.24;56.75;102566.20;2269881;76;51225;-73
2022/12/18 00:24:05;;;;;;;;;;;;;;;19.24;56.81;102557.69;2326794;76;50469;-75
2022/12/18 00:27:07;;;;;;;;;;;;;;;19.28;56.62;102561.77;2294949;75;50052;-72
2022/12/18 00:30:09;;;;;;;;;;;;;;;19.31;56.53;102564.16;2295283;76;50304;-73
2022/12/18 00:33:10;;;;;;;;;;;;;;;19.35;56.68;102557.53;2266604;75;49664;-72
2022/12/18 00:36:13;;;;;;;;;;;;;;;19.43;56.50;102557.32;2295385;76;51598;-73
2022/12/18 00:39:15;;;;;;;;;;;;;;;19.46;56.33;102559.22;2326416;75;51448;-72
2022/12/18 00:45:36;;;;;;;;;;;;;;;19.59;55.97;102554.89;2327074;75;22511;-77
2022/12/18 00:48:38;;;;;;;;;;;;;;;19.66;55.70;102557.36;2294925;76;50935;-72
2022/12/18 00:51:39;;;;;;;;;;;;;;;19.72;55.61;102554.63;2295192;76;50129;-73
2022/12/18 00:54:41;;;;;;;;;;;;;;;19.71;55.38;102555.13;2326643;76;50638;-74
2022/12/18 00:57:43;;;;;;;;;;;;;;;19.62;55.44;102551.91;2326492;75;51501;-73
2022/12/18 01:00:44;;;;;;;;;;;;;;;19.51;55.54;102544.03;2269835;76;51764;-73
2022/12/18 01:03:46;;;;;;;;;;;;;;;19.44;55.76;102538.87;2337853;75;50381;-74
2022/12/18 01:06:48;;;;;;;;;;;;;;;19.34;55.85;102541.55;2304575;76;51574;-74
2022/12/18 01:09:49;;;;;;;;;;;;;;;19.27;56.13;102542.63;2326586;76;50220;-73
2022/12/18 01:12:51;;;;;;;;;;;;;;;19.26;56.20;102550.31;2269692;76;51329;-73
2022/12/18 01:15:52;;;;;;;;;;;;;;;19.29;56.14;102554.08;2326443;76;50317;-73
2022/12/18 01:18:54;;;;;;;;;;;;;;;19.33;55.94;102558.16;2326312;76;50624;-73
2022/12/18 01:21:56;;;;;;;;;;;;;;;19.38;55.79;102556.91;2326427;75;51539;-73
2022/12/18 01:24:57;;;;;;;;;;;;;;;19.43;55.55;102562.19;2269757;76;52692;-73
2022/12/18 01:27:59;;;;;;;;;;;;;;;19.46;55.38;102562.40;2326185;76;51522;-74
2022/12/18 01:31:14;;;;;;;;;;;;;;;19.52;55.32;102574.78;2326188;75;50251;-73
2022/12/18 01:34:16;;;;;;;;;;;;;;;19.57;55.18;102586.41;2338073;75;50166;-74
2022/12/18 01:37:17;;;;;;;;;;;;;;;19.59;55.14;102579.91;2294400;76;51244;-74
2022/12/18 01:40:19;;;;;;;;;;;;;;;19.62;54.95;102576.08;2326683;76;50413;-74
2022/12/18 01:43:20;;;;;;;;;;;;;;;19.66;54.87;102578.01;2323947;76;50734;-74
2022/12/18 01:46:25;;;;;;;;;;;;;;;19.70;54.78;102584.30;2326435;76;50392;-74
2022/12/18 01:49:26;;;;;;;;;;;;;;;19.72;54.70;102584.17;2267356;76;49656;-74
2022/12/18 01:52:29;;;;;;;;;;;;;;;19.75;54.57;102585.22;2326542;76;50388;-74
2022/12/18 01:55:31;;;;;;;;;;;;;;;19.70;54.57;102586.14;2326674;76;51459;-74
2022/12/18 01:58:43;;;;;;;;;;;;;;;19.63;54.66;102580.48;2326310;75;51652;-74
2022/12/18 02:01:45;;;;;;;;;;;;;;;19.53;54.83;102589.04;2298892;75;51209;-74
2022/12/18 02:04:46;;;;;;;;;;;;;;;19.44;55.03;102585.85;2344092;75;50646;-72
2022/12/18 02:08:06;;;;;;;;;;;;;;;19.33;55.33;102589.03;2345104;74;50083;-73
2022/12/18 02:11:15;;;;;;;;;;;;;;;19.25;55.53;102587.55;2325479;76;50306;-73
2022/12/18 02:14:19;;;;;;;;;;;;;;;19.26;55.63;102588.39;2295111;76;51857;-74
2022/12/18 02:17:24;;;;;;;;;;;;;;;19.29;55.39;102583.61;2325317;76;50526;-73
2022/12/18 02:20:27;;;;;;;;;;;;;;;19.34;55.34;102592.55;2326444;75;50772;-73
2022/12/18 02:23:36;;;;;;;;;;;;;;;19.39;55.16;102594.82;2323012;76;50678;-74
2022/12/18 02:26:42;;;;;;;;;;;;;;;19.44;54.98;102592.06;2293733;76;51327;-73
2022/12/18 02:29:45;;;;;;;;;;;;;;;19.49;54.76;102598.36;2326469;75;50670;-73
2022/12/18 02:32:48;;;;;;;;;;;;;;;19.53;54.62;102595.75;2331209;75;50484;-73
2022/12/18 02:35:49;;;;;;;;;;;;;;;19.58;54.40;102602.89;2337036;75;50655;-73
2022/12/18 02:38:51;;;;;;;;;;;;;;;19.62;54.19;102608.31;2326490;76;51500;-73
2022/12/18 02:41:53;;;;;;;;;;;;;;;19.66;54.07;102608.39;2326260;76;51562;-74
2022/12/18 02:44:56;;;;;;;;;;;;;;;19.67;54.03;102620.01;2326662;76;51444;-73
2022/12/18 02:47:57;;;;;;;;;;;;;;;19.71;53.86;102615.56;2326254;75;50662;-73
2022/12/18 02:51:00;;;;;;;;;;;;;;;19.73;53.80;102617.61;2294953;76;50084;-73
2022/12/18 02:54:04;;;;;;;;;;;;;;;19.76;53.70;102620.51;2326718;76;51596;-73
2022/12/18 02:57:10;;;;;;;;;;;;;;;19.77;53.65;102616.82;2326238;75;51527;-73
2022/12/18 03:00:22;;;;;;;;;;;;;;;19.72;53.67;102621.27;2310628;76;51570;-73
2022/12/18 03:03:30;;;;;;;;;;;;;;;19.65;53.84;102622.83;2301171;76;51097;-73
2022/12/18 03:06:39;;;;;;;;;;;;;;;19.54;54.00;102609.02;2341296;76;50775;-73
2022/12/18 03:09:42;;;;;;;;;;;;;;;19.44;54.19;102607.33;2345506;74;50336;-73
2022/12/18 03:12:45;;;;;;;;;;;;;;;19.33;54.47;102606.98;2337665;76;51459;-73
2022/12/18 03:15:48;;;;;;;;;;;;;;;19.25;54.70;102606.84;2295090;76;49574;-73
2022/12/18 03:18:51;;;;;;;;;;;;;;;19.23;54.88;102618.20;2325260;75;50213;-74
2022/12/18 03:21:54;;;;;;;;;;;;;;;19.27;54.70;102619.13;2326764;76;51534;-73
2022/12/18 03:24:57;;;;;;;;;;;;;;;19.29;54.67;102619.84;2326608;76;50303;-73
2022/12/18 03:27:59;;;;;;;;;;;;;;;19.31;54.54;102615.16;2294892;76;51025;-73
2022/12/18 03:31:00;;;;;;;;;;;;;;;19.34;54.43;102624.30;2326728;76;50426;-73
2022/12/18 03:34:03;;;;;;;;;;;;;;;19.38;54.35;102626.70;2335673;75;50746;-73
2022/12/18 03:37:05;;;;;;;;;;;;;;;19.41;54.17;102625.06;2300111;75;51589;-73
2022/12/18 03:40:07;;;;;;;;;;;;;;;19.46;54.03;102616.94;2295211;76;51067;-74
2022/12/18 03:43:10;;;;;;;;;;;;;;;19.49;53.86;102622.02;2326800;76;50355;-73
2022/12/18 03:46:13;;;;;;;;;;;;;;;19.55;53.75;102627.34;2326338;76;51455;-72
2022/12/18 03:49:16;;;;;;;;;;;;;;;19.59;53.64;102616.66;2326454;76;51499;-73
2022/12/18 03:52:23;;;;;;;;;;;;;;;19.63;53.49;102613.21;2294957;76;51852;-73
2022/12/18 03:55:24;;;;;;;;;;;;;;;19.64;53.41;102623.80;2326546;75;50303;-73
2022/12/18 03:58:26;;;;;;;;;;;;;;;19.66;53.30;102625.84;2326443;75;50325;-73
2022/12/18 04:01:32;;;;;;;;;;;;;;;19.68;53.31;102630.63;2326625;76;50646;-74
2022/12/18 04:04:34;;;;;;;;;;;;;;;19.71;53.20;102633.02;2341568;75;51517;-73
2022/12/18 04:07:35;;;;;;;;;;;;;;;19.75;53.06;102627.70;2327579;75;50742;-73
2022/12/18 04:10:37;;;;;;;;;;;;;;;19.72;53.13;102632.02;2326693;76;50381;-74
2022/12/18 04:13:39;;;;;;;;;;;;;;;19.67;53.18;102620.84;2294999;76;51763;-74
2022/12/18 04:16:40;;;;;;;;;;;;;;;19.59;53.34;102621.53;2269388;76;51226;-73
2022/12/18 04:19:42;;;;;;;;;;;;;;;19.49;53.55;102619.84;2295276;75;50754;-73
2022/12/18 04:22:43;;;;;;;;;;;;;;;19.38;53.76;102630.22;2295257;76;50731;-73
2022/12/18 04:25:45;;;;;;;;;;;;;;;19.28;54.07;102634.23;2326567;76;51370;-73
2022/12/18 04:28:47;;;;;;;;;;;;;;;19.25;54.22;102643.91;2326195;75;50760;-73
2022/12/18 04:31:48;;;;;;;;;;;;;;;19.26;54.19;102640.22;2337758;75;50744;-74
2022/12/18 04:34:50;;;;;;;;;;;;;;;19.27;54.12;102647.31;2341036;75;51437;-73
2022/12/18 04:37:52;;;;;;;;;;;;;;;19.28;54.08;102644.13;2326503;76;51501;-74
2022/12/18 04:40:53;;;;;;;;;;;;;;;19.30;54.01;102636.29;2295568;76;51046;-73
2022/12/18 04:43:55;;;;;;;;;;;;;;;19.31;53.96;102647.37;2326754;76;51261;-74
2022/12/18 04:46:56;;;;;;;;;;;;;;;19.34;53.79;102648.92;2326147;76;51484;-73
2022/12/18 04:49:58;;;;;;;;;;;;;;;19.39;53.64;102650.70;2295168;76;51427;-73
2022/12/18 04:52:59;;;;;;;;;;;;;;;19.41;53.51;102651.41;2270053;76;50953;-74
2022/12/18 04:56:05;;;;;;;;;;;;;;;19.46;53.36;102645.12;2326428;76;50279;-74
2022/12/18 04:59:06;;;;;;;;;;;;;;;19.51;53.19;102646.90;2326594;75;50326;-74
2022/12/18 05:02:08;;;;;;;;;;;;;;;19.55;52.96;102647.48;2300991;76;50754;-74
2022/12/18 05:05:09;;;;;;;;;;;;;;;19.60;52.89;102654.63;2270065;76;50939;-75
2022/12/18 05:08:11;;;;;;;;;;;;;;;19.64;52.82;102653.33;2295220;76;51525;-74
2022/12/18 05:11:15;;;;;;;;;;;;;;;19.68;52.76;102659.30;2295221;76;50618;-74
2022/12/18 05:14:17;;;;;;;;;;;;;;;19.70;52.58;102656.81;2270052;76;50195;-75
2022/12/18 05:17:18;;;;;;;;;;;;;;;19.70;52.20;102662.19;2256080;76;51261;-75
2022/12/18 05:20:20;;;;;;;;;;;;;;;19.71;51.99;102664.41;2287810;77;50258;-75
2022/12/18 05:23:22;;;;;;;;;;;;;;;19.73;51.85;102670.46;2325576;75;50631;-74
2022/12/18 05:26:23;;;;;;;;;;;;;;;19.74;52.21;102673.02;2294738;75;50489;-74
2022/12/18 05:29:25;;;;;;;;;;;;;;;19.69;52.21;102675.28;2269653;76;51683;-73
2022/12/18 05:32:26;;;;;;;;;;;;;;;19.64;52.33;102680.19;2332305;75;50761;-75
2022/12/18 05:35:28;;;;;;;;;;;;;;;19.53;52.66;102679.83;2343704;76;51417;-75
2022/12/18 05:38:30;;;;;;;;;;;;;;;19.43;52.92;102687.03;2312913;76;51400;-76
2022/12/18 05:41:31;;;;;;;;;;;;;;;19.34;53.10;102691.41;2313569;76;51415;-78
2022/12/18 05:44:33;;;;;;;;;;;;;;;19.25;53.32;102689.53;2310536;76;50798;-76
2022/12/18 05:47:35;;;;;;;;;;;;;;;19.14;53.74;102689.66;2294965;75;50670;-77
2022/12/18 05:50:37;;;;;;;;;;;;;;;19.04;53.87;102692.80;2295171;76;50533;-77
2022/12/18 05:53:38;;;;;;;;;;;;;;;18.98;54.13;102702.72;2269841;76;49525;-76
2022/12/18 05:56:40;;;;;;;;;;;;;;;18.89;54.43;102693.16;2326356;76;50211;-77
2022/12/18 05:59:42;;;;;;;;;;;;;;;18.81;54.69;102697.02;2294983;76;50401;-76
2022/12/18 06:02:45;;;;;;;;;;;;;;;18.76;55.13;102697.07;2324826;76;50386;-76
2022/12/18 06:05:47;;;;;;;;;;;;;;;18.75;54.91;102704.23;2330548;75;51420;-76
2022/12/18 06:08:48;;;;;;;;;;;;;;;18.72;54.74;102712.03;2309333;75;50221;-75
2022/12/18 06:11:51;;;;;;;;;;;;;;;18.60;53.31;102710.44;2326342;76;51482;-74
2022/12/18 06:14:53;;;;;;;;;;;;;;;18.44;52.95;102718.92;2326595;76;50439;-74
2022/12/18 06:17:54;;;;;;;;;;;;;;;18.32;51.73;102719.16;2269222;76;51227;-76
2022/12/18 06:20:56;;;;;;;;;;;;;;;18.25;51.77;102716.14;2326801;76;50270;-77
2022/12/18 06:23:58;;;;;;;;;;;;;;;18.18;52.02;102720.31;2326946;76;50283;-78
2022/12/18 06:27:00;;;;;;;;;;;;;;;18.15;52.45;102723.25;2326650;76;50747;-77
2022/12/18 06:30:01;;;;;;;;;;;;;;;18.09;52.82;102718.42;2269902;75;51574;-75
2022/12/18 06:33:03;;;;;;;;;;;;;;;18.04;52.98;102726.34;2324348;75;50635;-76
2022/12/18 06:36:07;;;;;;;;;;;;;;;17.96;53.43;102728.83;2298311;75;50442;-76
2022/12/18 06:39:08;;;;;;;;;;;;;;;17.93;53.65;102731.77;2326374;76;51572;-76
2022/12/18 06:42:10;;;;;;;;;;;;;;;17.84;54.03;102740.05;2294433;76;49604;-75
2022/12/18 06:45:11;;;;;;;;;;;;;;;17.80;54.19;102747.12;2327557;75;50174;-75
2022/12/18 06:48:13;;;;;;;;;;;;;;;17.75;54.36;102747.95;2338175;74;50294;-79
2022/12/18 06:51:16;;;;;;;;;;;;;;;17.72;54.57;102751.73;2297199;76;50743;-74
2022/12/18 06:54:18;;;;;;;;;;;;;;;17.68;54.58;102753.48;2294742;76;52699;-74
2022/12/18 06:57:19;;;;;;;;;;;;;;;17.66;54.52;102758.10;2326550;75;51542;-77
2022/12/18 07:00:21;;;;;;;;;;;;;;;17.57;54.76;102767.25;2326916;76;51491;-79
2022/12/18 07:03:22;;;;;;;;;;;;;;;17.57;54.43;102780.64;2304027;76;51511;-77
2022/12/18 07:06:24;;;;;;;;;;;;;;;17.50;53.87;102779.92;2269829;76;51102;-78
2022/12/18 07:09:26;;;;;;;;;;;;;;;17.47;54.27;102781.02;2297936;76;51658;-78
2022/12/18 07:12:28;;;;;;;;;;;;;;;17.43;54.40;102771.52;2321358;76;51513;-78
2022/12/18 07:15:29;;;;;;;;;;;;;;;17.40;54.33;102756.56;2327183;76;50585;-78
2022/12/18 07:18:31;;;;;;;;;;;;;;;17.33;54.49;102750.48;2326649;76;50363;-77
2022/12/18 07:21:32;;;;;;;;;;;;;;;17.35;54.46;102757.91;2295547;76;50434;-78
2022/12/18 07:24:34;;;;;;;;;;;;;;;17.33;54.46;102774.56;2327051;76;50657;-78
2022/12/18 07:27:36;;;;;;;;;;;;;;;17.29;54.56;102773.09;2326671;75;50316;-78
2022/12/18 07:30:38;;;;;;;;;;;;;;;17.25;54.68;102773.84;2258355;76;51297;-78
2022/12/18 07:33:39;;;;;;;;;;;;;;;17.20;54.73;102784.91;2342626;75;50761;-77
2022/12/18 07:36:41;;;;;;;;;;;;;;;17.16;54.87;102777.23;2326868;76;51519;-78
2022/12/18 07:39:42;;;;;;;;;;;;;;;17.12;54.93;102768.61;2326539;76;51414;-78
2022/12/18 07:42:44;;;;;;;;;;;;;;;17.13;54.85;102776.15;2270360;76;49380;-77
2022/12/18 07:45:46;;;;;;;;;;;;;;;17.09;54.89;102780.91;2326989;76;50375;-77
2022/12/18 07:48:47;;;;;;;;;;;;;;;17.06;54.94;102779.81;2326522;75;50743;-78
2022/12/18 07:51:49;;;;;;;;;;;;;;;17.04;54.92;102779.08;2326876;76;50359;-78
2022/12/18 07:54:50;;;;;;;;;;;;;;;17.02;54.92;102772.98;2270280;76;51155;-78
2022/12/18 07:57:52;;;;;;;;;;;;;;;16.99;55.03;102775.91;2327127;76;50712;-79
2022/12/18 08:00:54;;;;;;;;;;;;;;;16.97;54.95;102767.15;2324815;76;50279;-80
2022/12/18 08:03:55;;;;;;;;;;;;;;;16.98;54.95;102759.52;2302279;76;51201;-78
2022/12/18 08:06:57;;;;;;;;;;;;;;;16.93;55.00;102770.56;2327039;75;50655;-79
2022/12/18 08:09:59;;;;;;;;;;;;;;;16.90;55.00;102768.59;2295844;76;51690;-78
2022/12/18 08:13:00;;;;;;;;;;;;;;;16.89;55.01;102781.61;2327126;76;51442;-78
2022/12/18 08:16:03;;;;;;;;;;;;;;;16.87;55.00;102778.20;2326955;76;51540;-78
2022/12/18 08:19:04;;;;;;;;;;;;;;;16.84;55.01;102777.95;2270193;76;50900;-78
2022/12/18 08:22:06;;;;;;;;;;;;;;;16.82;55.08;102780.38;2295802;76;50635;-79
2022/12/18 08:25:08;;;;;;;;;;;;;;;16.81;55.00;102778.20;2327431;76;51457;-79
2022/12/18 08:28:09;;;;;;;;;;;;;;;16.78;55.12;102786.95;2327082;76;50720;-79
2022/12/18 08:31:11;;;;;;;;;;;;;;;16.75;55.07;102790.20;2300594;75;51459;-79
2022/12/18 08:34:12;;;;;;;;;;;;;;;16.76;55.00;102784.36;2308452;74;51512;-78
2022/12/18 08:37:14;;;;;;;;;;;;;;;16.74;55.05;102783.61;2327041;75;50650;-79
2022/12/18 08:40:16;;;;;;;;;;;;;;;16.73;54.99;102792.13;2295664;76;51572;-78
2022/12/18 08:46:39;;;;;;;;;;;;;;;16.69;54.96;102794.66;2300889;76;24396;-79
2022/12/18 08:49:40;;;;;;;;;;;;;;;16.69;54.99;102796.00;2326071;75;51516;-79
2022/12/18 08:52:42;;;;;;;;;;;;;;;16.68;54.97;102809.50;2295720;76;50671;-79
2022/12/18 08:55:43;;;;;;;;;;;;;;;16.69;54.92;102801.83;2258996;76;50126;-79
2022/12/18 08:58:45;;;;;;;;;;;;;;;16.64;55.01;102808.02;2299623;76;50418;-79
2022/12/18 09:01:47;;;;;;;;;;;;;;;16.63;54.92;102811.18;2298512;76;50721;-80
2022/12/18 09:04:48;;;;;;;;;;;;;;;16.66;54.90;102824.80;2327197;76;50757;-78
2022/12/18 09:07:50;;;;;;;;;;;;;;;16.62;54.86;102829.53;2295428;75;49599;-77
2022/12/18 09:10:51;;;;;;;;;;;;;;;16.59;54.93;102820.88;2295641;76;50861;-79
2022/12/18 09:13:53;;;;;;;;;;;;;;;16.59;54.96;102825.73;2295455;76;51057;-77
2022/12/18 09:16:55;;;;;;;;;;;;;;;16.56;54.91;102825.97;2326512;76;50733;-77
2022/12/18 09:19:56;;;;;;;;;;;;;;;16.58;54.85;102829.39;2295160;76;51155;-76
2022/12/18 09:22:58;;;;;;;;;;;;;;;16.52;54.96;102829.86;2301610;76;50457;-76
2022/12/18 09:26:00;;;;;;;;;;;;;;;16.51;54.93;102834.83;2298649;75;50716;-77
2022/12/18 09:29:02;;;;;;;;;;;;;;;16.51;54.87;102832.99;2309073;76;50379;-78
2022/12/18 09:32:04;;;;;;;;;;;;;;;16.50;54.87;102834.47;2311506;76;52412;-77
2022/12/18 09:35:05;;;;;;;;;;;;;;;16.47;54.95;102836.04;2301363;76;51408;-76
2022/12/18 09:38:08;;;;;;;;;;;;;;;16.48;54.83;102836.39;2300450;76;50586;-76
2022/12/18 09:41:28;;;;;;;;;;;;;;;16.45;54.91;102833.47;2326605;76;51356;-77
2022/12/18 09:44:30;;;;;;;;;;;;;;;16.49;54.75;102831.41;2294999;76;51712;-78
2022/12/18 09:47:33;;;;;;;;;;;;;;;16.43;54.78;102816.69;2326317;75;50423;-76
2022/12/18 09:50:37;;;;;;;;;;;;;;;16.40;54.81;102810.74;2287792;77;50792;-76
2022/12/18 09:53:38;;;;;;;;;;;;;;;16.39;54.82;102811.23;2299481;76;50758;-76
2022/12/18 09:56:41;;;;;;;;;;;;;;;16.39;54.79;102809.89;2295107;76;52577;-78
2022/12/18 09:59:42;;;;;;;;;;;;;;;16.37;54.83;102813.16;2326845;75;51462;-77
2022/12/18 10:02:44;;;;;;;;;;;;;;;16.37;54.81;102795.80;2326884;76;50370;-78
2022/12/18 10:05:53;;;;;;;;;;;;;;;16.36;54.82;102786.05;2303885;76;50130;-77
2022/12/18 10:08:56;;;;;;;;;;;;;;;16.33;54.82;102775.12;2343023;74;50780;-77
2022/12/18 10:11:59;;;;;;;;;;;;;;;16.33;54.78;102767.59;2326762;76;51486;-77
2022/12/18 10:15:14;;;;;;;;;;;;;;;16.33;54.69;102768.44;2326731;76;50880;-77
2022/12/18 10:18:18;;;;;;;;;;;;;;;16.30;54.72;102766.00;2326431;75;50683;-78
2022/12/18 10:21:20;;;;;;;;;;;;;;;16.31;54.64;102767.73;2294945;76;51752;-78
2022/12/18 10:24:27;;;;;;;;;;;;;;;16.29;54.66;102772.33;2326638;76;50411;-77
2022/12/18 10:27:28;;;;;;;;;;;;;;;16.29;54.68;102772.33;2326421;76;50793;-79
2022/12/18 10:30:30;;;;;;;;;;;;;;;16.26;54.64;102771.23;2326814;76;51422;-77
2022/12/18 10:33:32;;;;;;;;;;;;;;;16.26;54.57;102770.36;2290150;76;50003;-77
2022/12/18 10:36:33;;;;;;;;;;;;;;;16.25;54.62;102766.84;2301423;76;50340;-77
2022/12/18 10:39:35;;;;;;;;;;;;;;;16.23;54.54;102759.42;2326246;76;50332;-78
2022/12/18 10:42:36;;;;;;;;;;;;;;;16.20;54.62;102756.98;2295211;76;50714;-78
2022/12/18 10:45:39;;;;;;;;;;;;;;;16.21;54.61;102756.03;2269872;76;51042;-78
2022/12/18 10:48:56;;;;;;;;;;;;;;;16.21;54.57;102751.15;2326451;75;50350;-76
2022/12/18 10:52:14;;;;;;;;;;;;;;;16.20;54.56;102748.97;2326648;76;50403;-78
2022/12/18 10:55:16;;;;;;;;;;;;;;;16.18;54.54;102740.22;2326707;76;51360;-77
2022/12/18 10:58:25;;;;;;;;;;;;;;;16.17;54.58;102743.02;2296384;76;52897;-78
2022/12/18 11:01:27;;;;;;;;;;;;;;;16.16;54.56;102738.63;2327031;76;51606;-77
2022/12/18 11:04:29;;;;;;;;;;;;;;;16.14;54.58;102732.58;2314870;76;51492;-77
2022/12/18 11:07:35;;;;;;;;;;;;;;;16.13;54.53;102727.69;2298044;74;52740;-77
2022/12/18 11:10:38;;;;;;;;;;;;;;;16.11;54.55;102725.16;2311189;76;52692;-77
2022/12/18 11:13:40;;;;;;;;;;;;;;;16.10;54.53;102723.92;2327036;76;52442;-77
2022/12/18 11:16:45;;;;;;;;;;;;;;;16.08;54.56;102727.19;2326630;76;49996;-77
2022/12/18 11:19:48;;;;;;;;;;;;;;;16.09;54.51;102723.08;2326714;76;51616;-77
2022/12/18 11:22:57;;;;;;;;;;;;;;;16.06;54.53;102720.65;2294532;76;52880;-77
2022/12/18 11:25:59;;;;;;;;;;;;;;;16.07;54.52;102718.82;2326709;76;51517;-77
2022/12/18 11:29:10;;;;;;;;;;;;;;;16.06;54.49;102727.81;2326849;76;50319;-77
2022/12/18 11:32:16;;;;;;;;;;;;;;;16.01;54.53;102732.64;2327032;76;50274;-77
2022/12/18 11:35:20;;;;;;;;;;;;;;;16.04;54.50;102731.08;2301291;76;50107;-77
2022/12/18 11:38:23;;;;;;;;;;;;;;;15.99;54.40;102731.91;2356261;74;50472;-77
2022/12/18 11:44:53;;;;;;;;;;;;;;;16.00;54.48;102726.92;2331392;75;22037;-78
2022/12/18 11:47:59;;;;;;;;;;;;;;;15.99;54.46;102721.22;2272125;76;51380;-77
2022/12/18 11:51:02;;;;;;;;;;;;;;;15.97;54.43;102728.48;2329853;76;51632;-76
2022/12/18 11:54:05;;;;;;;;;;;;;;;15.96;54.42;102728.13;2328305;76;50695;-76
2022/12/18 11:57:08;;;;;;;;;;;;;;;15.94;54.48;102735.40;2327114;76;51636;-75
2022/12/18 12:00:14;;;;;;;;;;;;;;;15.90;54.43;102745.44;2296655;76;53406;-77
2022/12/18 12:03:30;;;;;;;;;;;;;;;15.91;54.45;102753.84;2329268;75;50714;-77
2022/12/18 12:06:33;;;;;;;;;;;;;;;15.91;54.41;102750.32;2344032;75;50067;-77
2022/12/18 12:09:36;;;;;;;;;;;;;;;15.89;54.42;102748.59;2294863;76;51598;-77
2022/12/18 12:12:45;;;;;;;;;;;;;;;15.87;54.39;102751.86;2295529;76;52539;-77
2022/12/18 12:15:54;;;;;;;;;;;;;;;15.87;54.40;102749.67;2328085;75;50314;-77
2022/12/18 12:19:10;;;;;;;;;;;;;;;15.84;54.44;102762.77;2333558;75;51337;-77
2022/12/18 12:22:13;;;;;;;;;;;;;;;15.83;54.38;102756.23;2341983;76;50853;-77
2022/12/18 12:25:28;;;;;;;;;;;;;;;15.82;54.39;102755.34;2308960;76;51789;-77
2022/12/18 12:28:37;;;;;;;;;;;;;;;15.81;54.33;102758.15;2326520;75;51533;-78
2022/12/18 12:31:49;;;;;;;;;;;;;;;15.81;54.41;102760.81;2326741;75;50763;-77
2022/12/18 12:35:05;;;;;;;;;;;;;;;15.78;54.33;102763.23;2337503;75;51592;-78
2022/12/18 12:38:12;;;;;;;;;;;;;;;15.74;54.32;102767.08;2305674;76;51016;-76
2022/12/18 12:44:41;;;;;;;;;;;;;;;15.77;54.39;102783.34;2326897;76;24290;-77
2022/12/18 12:47:43;;;;;;;;;;;;;;;15.75;54.38;102778.14;2326428;75;51633;-78
2022/12/18 12:50:44;;;;;;;;;;;;;;;15.73;54.30;102777.39;2295063;76;52467;-78
2022/12/18 12:53:46;;;;;;;;;;;;;;;15.72;54.36;102773.03;2326831;76;50783;-77
2022/12/18 12:56:52;;;;;;;;;;;;;;;15.75;54.30;102765.25;2335912;75;51489;-77
2022/12/18 12:59:58;;;;;;;;;;;;;;;15.70;54.25;102754.94;2321956;75;52195;-77
2022/12/18 13:03:01;;;;;;;;;;;;;;;15.72;54.24;102730.79;2295252;76;50999;-77
2022/12/18 13:06:05;;;;;;;;;;;;;;;15.68;54.31;102728.81;2326588;76;51505;-78
2022/12/18 13:09:06;;;;;;;;;;;;;;;15.68;54.32;102724.80;2326550;75;50589;-78
2022/12/18 13:15:38;;;;;;;;;;;;;;;15.65;54.32;102726.38;2327040;75;22331;-78
2022/12/18 13:18:39;;;;;;;;;;;;;;;15.63;54.30;102714.95;2326851;76;50737;-78
2022/12/18 13:21:41;;;;;;;;;;;;;;;15.63;54.30;102737.14;2295296;76;50423;-77
2022/12/18 13:24:42;;;;;;;;;;;;;;;15.61;54.30;102739.55;2326884;76;51536;-76
2022/12/18 13:27:46;;;;;;;;;;;;;;;15.62;54.26;102730.12;2313579;74;50601;-76
2022/12/18 13:30:57;;;;;;;;;;;;;;;15.60;54.24;102732.04;2319738;76;50768;-77
2022/12/18 13:34:03;;;;;;;;;;;;;;;15.60;54.09;102729.86;2326757;75;51546;-77
2022/12/18 13:37:22;;;;;;;;;;;;;;;15.59;54.23;102724.13;2320481;76;51675;-79
2022/12/18 13:40:41;;;;;;;;;;;;;;;15.58;54.25;102722.44;2295698;76;51993;-79
2022/12/18 13:43:43;;;;;;;;;;;;;;;15.55;54.21;102715.52;2327490;76;50467;-79
2022/12/18 13:46:48;;;;;;;;;;;;;;;15.54;54.21;102716.49;2327100;76;50761;-79
2022/12/18 13:49:49;;;;;;;;;;;;;;;15.52;54.19;102722.42;2327262;76;51469;-79
2022/12/18 13:52:51;;;;;;;;;;;;;;;15.54;54.15;102718.28;2295897;76;50009;-78
2022/12/18 13:55:52;;;;;;;;;;;;;;;15.53;54.19;102697.42;2296473;76;49514;-78
2022/12/18 13:59:04;;;;;;;;;;;;;;;15.49;54.07;102693.30;2345662;75;50383;-79
2022/12/18 14:02:18;;;;;;;;;;;;;;;15.49;54.15;102706.64;2330857;75;50356;-79
2022/12/18 14:05:25;;;;;;;;;;;;;;;15.45;54.19;102705.98;2327524;76;50327;-79
2022/12/18 14:08:27;;;;;;;;;;;;;;;15.43;54.17;102695.91;2295728;76;49824;-79
2022/12/18 14:11:29;;;;;;;;;;;;;;;15.46;54.13;102691.70;2327312;76;52441;-79
2022/12/18 14:14:30;;;;;;;;;;;;;;;15.44;54.12;102686.96;2327563;76;51552;-78
2022/12/18 14:17:32;;;;;;;;;;;;;;;15.42;54.17;102690.22;2295649;75;51661;-78
2022/12/18 14:20:34;;;;;;;;;;;;;;;15.41;54.15;102688.52;2295708;76;51014;-79
2022/12/18 14:23:39;;;;;;;;;;;;;;;15.39;54.01;102694.45;2327275;75;51590;-79
2022/12/18 14:26:41;;;;;;;;;;;;;;;15.40;54.13;102682.80;2337671;75;51682;-79
2022/12/18 14:29:43;;;;;;;;;;;;;;;15.37;54.17;102674.18;2316517;75;51573;-79
2022/12/18 14:32:47;;;;;;;;;;;;;;;15.40;54.10;102668.62;2292717;76;52415;-79
2022/12/18 14:36:01;;;;;;;;;;;;;;;15.39;54.04;102658.92;2326804;75;50778;-79
2022/12/18 14:39:02;;;;;;;;;;;;;;;15.38;54.06;102640.70;2327393;75;51705;-79
2022/12/18 14:42:04;;;;;;;;;;;;;;;15.36;54.04;102638.66;2327350;76;50782;-79
2022/12/18 14:45:07;;;;;;;;;;;;;;;15.33;54.05;102633.53;2296064;76;50974;-78
2022/12/18 14:48:13;;;;;;;;;;;;;;;15.34;54.02;102640.58;2308700;75;51489;-81
2022/12/18 14:51:21;;;;;;;;;;;;;;;15.39;53.88;102645.09;2327623;76;50486;-79
2022/12/18 14:54:23;;;;;;;;;;;;;;;15.36;53.93;102635.12;2327568;76;50375;-79
2022/12/18 14:57:26;;;;;;;;;;;;;;;15.31;53.89;102630.14;2301161;76;50142;-78
2022/12/18 15:00:27;;;;;;;;;;;;;;;15.29;53.88;102630.73;2358627;75;50378;-78
2022/12/18 15:03:29;;;;;;;;;;;;;;;15.29;53.94;102625.40;2329376;75;50883;-78
2022/12/18 15:06:34;;;;;;;;;;;;;;;15.27;53.88;102640.66;2326987;76;52408;-78
2022/12/18 15:09:36;;;;;;;;;;;;;;;15.28;53.97;102652.17;2295732;76;51109;-77
2022/12/18 15:12:42;;;;;;;;;;;;;;;15.25;53.85;102661.25;2327005;76;50718;-79
2022/12/18 15:15:46;;;;;;;;;;;;;;;15.23;53.94;102661.83;2327437;76;52493;-79
2022/12/18 15:18:48;;;;;;;;;;;;;;;15.24;53.93;102667.07;2327021;75;52111;-77
2022/12/18 15:21:49;;;;;;;;;;;;;;;15.25;53.88;102667.91;2326954;76;51441;-78
2022/12/18 15:24:51;;;;;;;;;;;;;;;15.24;53.90;102663.56;2326971;76;50262;-78
2022/12/18 15:27:53;;;;;;;;;;;;;;;15.21;53.88;102662.45;2340088;75;50452;-78
2022/12/18 15:31:05;;;;;;;;;;;;;;;15.20;53.89;102660.23;2361630;75;50417;-79
2022/12/18 15:34:08;;;;;;;;;;;;;;;15.19;53.78;102664.37;2276954;76;51033;-79
2022/12/18 15:37:10;;;;;;;;;;;;;;;15.17;53.76;102663.14;2351915;74;52272;-78
2022/12/18 15:40:15;;;;;;;;;;;;;;;15.18;53.75;102664.86;2361645;75;51502;-78
2022/12/18 15:43:34;;;;;;;;;;;;;;;15.17;53.83;102660.95;2346129;74;50479;-77
2022/12/18 15:46:36;;;;;;;;;;;;;;;15.16;53.81;102677.94;2295360;76;51230;-78
2022/12/18 15:49:38;;;;;;;;;;;;;;;15.15;53.79;102677.55;2327178;76;50490;-78
2022/12/18 15:52:40;;;;;;;;;;;;;;;15.12;53.76;102673.28;2295957;76;51439;-78
2022/12/18 15:59:01;;;;;;;;;;;;;;;15.12;53.72;102669.77;2301566;76;22321;-78
2022/12/18 16:02:05;;;;;;;;;;;;;;;15.08;53.70;102665.61;2327484;76;50809;-78